الصفحة الرئيسية
METAR-TAF:

METAR-TAF

مطار :

Uherské Hradiště, التشيك

دائرة عرض: 49-01-46N, خط طول: 017-26-23E, ارتفاع: 177 متر

مراقبة الطقس الحالي

تاريخ ووقت الإصدار 12ساعات و 32 دقيقة قبل الساعة 14:00UTC
ريح 14 عقدة من الشمال/الشمال الغربي تتزايد حتى 24 عقدة
درجة الحرارة 25°درجة مئوية
الرطوبة 44%
ضغط 1019 hPa
الرؤية 10 كم أو أكثر
الغيوم لا تقل 1500 م ولا وجود لمزنة ركامية السحاب الأسود

METAR: LKKU 171400Z 34014G24KT CAVOK 25/12 Q1019

زمن: 04:32 (02:32 UTC)


TAF: مفقودة

أرصاد الطقس والتوقعات من أكثر من 4000 مطار (تقارير الطقس للمطار METAR والتنبؤ بالطقس بالمطارTAF).

المحطات المتاحة هي النقط الصفراء والحمراء على الخريطة.

حرك المؤشر فوق النقطة لمعرفة اسم المحطة.

ثم انقر لمعرفة أرصاد وتوقعات الطقس.

لتغيير الخارطة: اضغط على الأزرار الخضراء مع رمز الصليب الأسود للتكبير. على الزر الأخضر مع شرطة للتصغير، أو على الأسهم الخضراء للخرائط المجاورة.


METAR-TAF: